createdAt,value
2018-05-17T00:01:07.335Z,14.97
2018-05-17T00:03:33.455Z,15.20
2018-05-17T00:05:59.566Z,16.07
2018-05-17T00:08:26.399Z,16.37
2018-05-17T00:10:52.515Z,15.10
2018-05-17T00:13:19.339Z,21.73
2018-05-17T00:15:48.383Z,18.93
2018-05-17T00:18:15.214Z,17.07
2018-05-17T00:20:41.326Z,19.20
2018-05-17T00:23:08.155Z,14.93
2018-05-17T00:25:34.278Z,17.80
2018-05-17T00:28:00.361Z,18.37
2018-05-17T00:30:26.446Z,14.83
2018-05-17T00:32:52.552Z,14.10
2018-05-17T00:35:18.642Z,13.77
2018-05-17T00:37:44.758Z,14.47
2018-05-17T00:40:11.607Z,16.63
2018-05-17T00:42:37.699Z,16.67
2018-05-17T00:45:03.779Z,13.93
2018-05-17T00:47:29.879Z,15.87
2018-05-17T00:49:56.695Z,26.20
2018-05-17T00:52:22.817Z,14.80
2018-05-17T00:54:48.976Z,17.13
2018-05-17T00:57:15.070Z,16.03
2018-05-17T00:59:42.015Z,17.67
2018-05-17T01:02:08.094Z,16.67
2018-05-17T01:04:34.167Z,17.20
2018-05-17T01:07:01.002Z,17.13
2018-05-17T01:09:27.095Z,18.80
2018-05-17T01:11:53.167Z,18.47
2018-05-17T01:14:19.274Z,18.43
2018-05-17T01:16:45.351Z,18.67
2018-05-17T01:19:11.450Z,18.07
2018-05-17T01:21:37.530Z,19.17
2018-05-17T01:24:03.648Z,19.10
2018-05-17T01:26:29.730Z,18.03
2018-05-17T01:28:56.562Z,18.07
2018-05-17T01:31:22.675Z,19.37
2018-05-17T01:33:48.757Z,18.23
2018-05-17T01:36:14.890Z,19.80
2018-05-17T01:38:40.995Z,19.00
2018-05-17T01:41:07.118Z,18.50
2018-05-17T01:43:33.262Z,20.47
2018-05-17T01:46:00.374Z,16.53
2018-05-17T01:48:26.471Z,17.20
2018-05-17T01:50:52.598Z,17.60
2018-05-17T01:53:18.702Z,16.90
2018-05-17T01:55:44.878Z,22.07
2018-05-17T01:58:10.995Z,20.50
2018-05-17T02:00:37.870Z,21.53
2018-05-17T02:03:04.007Z,19.93
2018-05-17T02:05:30.131Z,31.23
2018-05-17T02:07:56.233Z,27.03
2018-05-17T02:10:22.355Z,25.40
2018-05-17T02:12:48.485Z,22.53
2018-05-17T02:15:14.611Z,21.03
2018-05-17T02:17:40.727Z,22.03
2018-05-17T02:20:06.829Z,20.40
2018-05-17T02:22:33.697Z,30.40
2018-05-17T02:25:00.542Z,26.63
2018-05-17T02:27:27.418Z,23.37
2018-05-17T02:29:53.552Z,29.03
2018-05-17T02:32:19.650Z,24.13
2018-05-17T02:34:45.775Z,23.07
2018-05-17T02:37:11.901Z,25.60
2018-05-17T02:39:38.006Z,29.20
2018-05-17T02:42:04.116Z,27.60
2018-05-17T02:44:30.286Z,30.53
2018-05-17T02:46:56.394Z,30.30
2018-05-17T02:49:22.532Z,27.10
2018-05-17T02:51:48.639Z,25.33
2018-05-17T02:54:14.806Z,25.60
2018-05-17T02:56:40.931Z,28.27
2018-05-17T02:59:07.071Z,26.27
2018-05-17T03:01:33.210Z,29.10
2018-05-17T03:03:59.309Z,31.07
2018-05-17T03:06:25.418Z,23.97
2018-05-17T03:08:52.318Z,24.87
2018-05-17T03:11:18.453Z,27.00
2018-05-17T03:13:44.550Z,25.93
2018-05-17T03:16:11.431Z,36.00
2018-05-17T03:18:37.530Z,35.60
2018-05-17T03:21:03.665Z,35.17
2018-05-17T03:23:29.890Z,29.70
2018-05-17T03:25:56.006Z,37.40
2018-05-17T03:28:22.135Z,36.57
2018-05-17T03:30:48.246Z,33.87
2018-05-17T03:33:15.110Z,33.70
2018-05-17T03:35:41.282Z,36.80
2018-05-17T03:38:07.397Z,36.70
2018-05-17T03:40:33.495Z,40.30
2018-05-17T03:42:59.631Z,31.97
2018-05-17T03:45:25.730Z,42.10
2018-05-17T03:47:51.830Z,37.27
2018-05-17T03:50:17.938Z,42.33
2018-05-17T03:52:44.063Z,41.37
2018-05-17T03:55:13.040Z,39.40
2018-05-17T03:57:39.195Z,43.97
2018-05-17T04:00:05.322Z,39.67
2018-05-17T04:02:43.727Z,43.50
2018-05-17T04:05:22.835Z,46.67
2018-05-17T04:07:49.047Z,37.53
2018-05-17T04:10:15.739Z,39.87
2018-05-17T04:12:42.586Z,42.03
2018-05-17T04:15:08.727Z,38.20
2018-05-17T04:17:34.874Z,42.73
2018-05-17T04:20:00.978Z,42.17
2018-05-17T04:22:27.813Z,40.87
2018-05-17T04:24:53.938Z,42.77
2018-05-17T04:27:20.065Z,48.67
2018-05-17T04:29:46.234Z,42.70
2018-05-17T04:32:12.398Z,42.70
2018-05-17T04:34:38.514Z,42.27
2018-05-17T04:37:04.619Z,49.77
2018-05-17T04:39:31.471Z,47.33
2018-05-17T04:41:57.576Z,47.17
2018-05-17T04:44:23.683Z,43.50
2018-05-17T04:46:49.815Z,41.33
2018-05-17T04:49:15.921Z,42.70
2018-05-17T04:51:42.754Z,42.37
2018-05-17T04:54:08.902Z,53.63
2018-05-17T04:56:35.733Z,51.00
2018-05-17T04:59:02.983Z,44.07
2018-05-17T05:01:29.078Z,45.63
2018-05-17T05:03:55.916Z,42.23
2018-05-17T05:06:22.766Z,46.70
2018-05-17T05:08:48.954Z,41.33
2018-05-17T05:11:15.053Z,43.53
2018-05-17T05:13:41.886Z,43.70
2018-05-17T05:16:08.019Z,38.30
2018-05-17T05:18:34.119Z,37.67
2018-05-17T05:21:00.202Z,36.33
2018-05-17T05:23:26.294Z,31.33
2018-05-17T05:25:52.374Z,30.77
2018-05-17T05:28:18.475Z,34.70
2018-05-17T05:30:44.570Z,34.10
2018-05-17T05:33:11.406Z,35.03
2018-05-17T05:35:37.506Z,32.80
2018-05-17T05:38:03.618Z,37.60
2018-05-17T05:40:30.515Z,31.23
2018-05-17T05:42:56.607Z,33.00
2018-05-17T05:45:23.491Z,30.30
2018-05-17T05:47:49.561Z,30.97
2018-05-17T05:50:15.638Z,35.27
2018-05-17T05:52:41.732Z,33.33
2018-05-17T05:55:07.821Z,35.27
2018-05-17T05:57:33.970Z,33.20
2018-05-17T06:00:00.074Z,28.03
2018-05-17T06:02:26.258Z,29.23
2018-05-17T06:04:52.299Z,27.50
2018-05-17T06:07:18.403Z,28.80
2018-05-17T06:09:46.071Z,29.00
2018-05-17T06:12:12.918Z,27.23
2018-05-17T06:14:39.037Z,28.07
2018-05-17T06:17:05.150Z,29.70
2018-05-17T06:19:31.233Z,29.13
2018-05-17T06:21:57.347Z,28.93
2018-05-17T06:24:23.430Z,26.60
2018-05-17T06:26:50.279Z,22.90
2018-05-17T06:29:17.118Z,33.40
2018-05-17T06:31:43.200Z,24.77
2018-05-17T06:34:09.331Z,25.23
2018-05-17T06:36:35.435Z,27.80
2018-05-17T06:39:01.542Z,22.20
2018-05-17T06:41:27.662Z,22.63
2018-05-17T06:43:53.759Z,26.57
2018-05-17T06:46:20.651Z,24.27
2018-05-17T06:48:46.742Z,23.17
2018-05-17T06:51:12.946Z,26.10
2018-05-17T06:53:39.039Z,18.83
2018-05-17T06:56:05.873Z,27.63
2018-05-17T06:58:32.091Z,37.00
2018-05-17T07:00:58.324Z,24.03
2018-05-17T07:03:24.378Z,23.73
2018-05-17T07:05:50.520Z,31.20
2018-05-17T07:08:16.613Z,21.97
2018-05-17T07:10:42.730Z,20.53
2018-05-17T07:13:09.570Z,22.80
2018-05-17T07:15:36.406Z,22.33
2018-05-17T07:18:02.644Z,23.63
2018-05-17T07:20:28.618Z,19.30
2018-05-17T07:22:55.471Z,18.77
2018-05-17T07:25:22.312Z,18.97
2018-05-17T07:27:49.191Z,25.90
2018-05-17T07:30:16.386Z,22.80
2018-05-17T07:32:42.496Z,19.80
2018-05-17T07:35:08.600Z,20.53
2018-05-17T07:37:34.691Z,18.50
2018-05-17T07:40:00.793Z,23.80
2018-05-17T07:42:27.641Z,20.33
2018-05-17T07:44:53.739Z,18.47
2018-05-17T07:47:19.947Z,21.33
2018-05-17T07:49:45.974Z,18.37
2018-05-17T07:52:12.819Z,19.93
2018-05-17T07:54:38.930Z,17.87
2018-05-17T07:57:05.779Z,23.00
2018-05-17T07:59:31.879Z,19.00
2018-05-17T08:01:57.971Z,21.60
2018-05-17T08:04:24.182Z,19.57
2018-05-17T08:06:50.316Z,15.53
2018-05-17T08:09:17.175Z,21.63
2018-05-17T08:11:43.285Z,16.00
2018-05-17T08:14:09.375Z,18.37
2018-05-17T08:16:35.479Z,26.23
2018-05-17T08:19:02.311Z,21.33
2018-05-17T08:21:28.398Z,21.50
2018-05-17T08:23:54.494Z,19.13
2018-05-17T08:26:20.639Z,20.63
2018-05-17T08:28:46.727Z,22.30
2018-05-17T08:31:12.834Z,20.17
2018-05-17T08:33:38.937Z,20.60
2018-05-17T08:36:05.963Z,19.43
2018-05-17T08:38:31.991Z,17.20
2018-05-17T08:40:58.092Z,21.13
2018-05-17T08:43:24.315Z,14.23
2018-05-17T08:45:50.446Z,13.50
2018-05-17T08:48:17.282Z,14.80
2018-05-17T08:50:43.423Z,22.67
2018-05-17T08:53:09.551Z,18.33
2018-05-17T08:55:35.690Z,15.70
2018-05-17T08:58:01.814Z,17.20
2018-05-17T09:00:27.930Z,15.77
2018-05-17T09:02:54.018Z,19.57
2018-05-17T09:05:20.742Z,19.67
2018-05-17T09:07:46.867Z,20.87
2018-05-17T09:10:12.979Z,15.73
2018-05-17T09:12:39.075Z,24.80
2018-05-17T09:15:05.178Z,14.37
2018-05-17T09:17:32.015Z,14.80
2018-05-17T09:19:58.110Z,12.73
2018-05-17T09:22:24.519Z,17.60
2018-05-17T09:24:50.617Z,18.33
2018-05-17T09:27:17.487Z,17.53
2018-05-17T09:29:44.322Z,14.37
2018-05-17T09:32:11.073Z,14.30
2018-05-17T09:34:37.186Z,18.70
2018-05-17T09:37:03.277Z,17.10
2018-05-17T09:39:29.395Z,15.77
2018-05-17T09:41:55.478Z,15.13
2018-05-17T09:44:21.573Z,13.13
2018-05-17T09:46:48.405Z,19.87
2018-05-17T09:49:14.522Z,21.80
2018-05-17T09:51:40.598Z,16.00
2018-05-17T09:54:06.722Z,16.33
2018-05-17T09:56:32.919Z,15.33
2018-05-17T09:58:59.065Z,17.63
2018-05-17T10:01:25.170Z,17.80
2018-05-17T10:03:52.098Z,14.10
2018-05-17T10:06:18.224Z,15.90
2018-05-17T10:08:44.341Z,16.73
2018-05-17T10:11:10.466Z,14.37
2018-05-17T10:13:36.630Z,19.30
2018-05-17T10:16:02.765Z,19.60
2018-05-17T10:18:28.882Z,24.50
2018-05-17T10:20:54.982Z,20.77
2018-05-17T10:23:21.837Z,12.10
2018-05-17T10:25:47.941Z,15.70
2018-05-17T10:28:14.071Z,19.10
2018-05-17T10:30:40.168Z,14.70
2018-05-17T10:33:06.261Z,16.63
2018-05-17T10:35:32.370Z,16.37
2018-05-17T10:37:58.470Z,12.27
2018-05-17T10:40:24.673Z,14.37
2018-05-17T10:42:50.831Z,16.20
2018-05-17T10:45:16.994Z,14.13
2018-05-17T10:47:43.851Z,16.50
2018-05-17T10:50:10.723Z,14.53
2018-05-17T10:52:37.591Z,17.13
2018-05-17T10:55:03.710Z,18.53
2018-05-17T10:57:30.566Z,15.10
2018-05-17T10:59:57.482Z,16.30
2018-05-17T11:02:23.586Z,15.30
2018-05-17T11:04:49.831Z,13.60
2018-05-17T11:07:15.925Z,18.10
2018-05-17T11:09:42.022Z,15.83
2018-05-17T11:12:08.238Z,16.97
2018-05-17T11:14:34.415Z,13.93
2018-05-17T11:17:00.542Z,12.13
2018-05-17T11:19:26.639Z,13.57
2018-05-17T11:21:52.771Z,15.40
2018-05-17T11:24:19.622Z,16.40
2018-05-17T11:26:46.486Z,15.40
2018-05-17T11:29:13.330Z,15.50
2018-05-17T11:31:39.479Z,17.07
2018-05-17T11:34:06.318Z,16.50
2018-05-17T11:36:32.409Z,16.50
2018-05-17T11:38:58.530Z,14.10
2018-05-17T11:41:24.642Z,14.70
2018-05-17T11:43:51.503Z,18.17
2018-05-17T11:46:18.415Z,16.30
2018-05-17T11:48:44.537Z,18.23
2018-05-17T11:51:10.635Z,21.70
2018-05-17T11:53:37.499Z,13.17
2018-05-17T11:56:04.991Z,12.50
2018-05-17T11:58:31.126Z,14.93
2018-05-17T12:00:57.210Z,14.57
2018-05-17T12:03:23.298Z,19.83
2018-05-17T12:05:50.240Z,15.00
2018-05-17T12:08:17.088Z,13.60
2018-05-17T12:10:43.222Z,15.10
2018-05-17T12:13:09.323Z,14.87
2018-05-17T12:15:35.449Z,13.57
2018-05-17T12:18:01.547Z,10.30
2018-05-17T12:20:28.419Z,16.70
2018-05-17T12:22:54.567Z,11.53
2018-05-17T12:25:21.390Z,13.47
2018-05-17T12:27:47.514Z,11.80
2018-05-17T12:30:13.608Z,14.50
2018-05-17T12:32:39.834Z,12.50
2018-05-17T12:35:06.906Z,12.60
2018-05-17T12:37:33.006Z,8.80
2018-05-17T12:39:59.126Z,14.67
2018-05-17T12:42:25.266Z,10.93
2018-05-17T12:44:52.415Z,17.43
2018-05-17T12:47:18.564Z,11.93
2018-05-17T12:49:44.658Z,13.07
2018-05-17T12:52:10.774Z,18.50
2018-05-17T12:54:36.862Z,20.80
2018-05-17T12:57:02.982Z,12.53
2018-05-17T12:59:29.071Z,18.03
2018-05-17T13:01:55.216Z,10.00
2018-05-17T13:04:21.318Z,12.47
2018-05-17T13:06:47.449Z,11.40
2018-05-17T13:09:13.589Z,10.20
2018-05-17T13:11:39.713Z,15.57
2018-05-17T13:14:05.814Z,14.53
2018-05-17T13:16:31.905Z,11.63
2018-05-17T13:18:59.395Z,13.60
2018-05-17T13:21:25.630Z,17.67
2018-05-17T13:23:51.730Z,8.20
2018-05-17T13:26:17.853Z,10.00
2018-05-17T13:28:44.866Z,12.30
2018-05-17T13:31:10.962Z,11.40
2018-05-17T13:33:40.183Z,11.30
2018-05-17T13:36:06.470Z,10.03
2018-05-17T13:38:32.640Z,12.20
2018-05-17T13:40:58.743Z,10.33
2018-05-17T13:43:25.583Z,11.87
2018-05-17T13:45:51.846Z,12.20
2018-05-17T13:48:17.963Z,17.20
2018-05-17T13:50:44.059Z,15.13
2018-05-17T13:53:10.904Z,12.43
2018-05-17T13:55:37.843Z,8.70
2018-05-17T13:58:03.986Z,10.70
2018-05-17T14:00:30.090Z,14.10
2018-05-17T14:02:56.282Z,11.37
2018-05-17T14:05:22.314Z,10.10
2018-05-17T14:07:48.422Z,13.67
2018-05-17T14:10:14.533Z,10.10
2018-05-17T14:12:40.650Z,8.30
2018-05-17T14:15:07.544Z,16.60
2018-05-17T14:17:33.646Z,13.80
2018-05-17T14:20:00.508Z,11.23
2018-05-17T14:22:26.610Z,11.63
2018-05-17T14:24:52.731Z,12.50
2018-05-17T14:27:18.828Z,10.60
2018-05-17T14:29:44.931Z,11.50
2018-05-17T14:32:11.135Z,13.73
2018-05-17T14:34:37.239Z,11.63
2018-05-17T14:37:03.338Z,16.60
2018-05-17T14:39:29.455Z,17.27
2018-05-17T14:41:55.574Z,7.53
2018-05-17T14:44:21.673Z,12.00
2018-05-17T14:46:48.561Z,14.73
2018-05-17T14:49:14.663Z,12.07
2018-05-17T14:51:40.771Z,18.80
2018-05-17T14:54:06.910Z,11.47
2018-05-17T14:56:33.030Z,18.23
2018-05-17T14:58:59.151Z,10.00
2018-05-17T15:01:25.261Z,10.30
2018-05-17T15:03:51.869Z,14.30
2018-05-17T15:06:17.979Z,11.20
2018-05-17T15:08:44.121Z,8.20
2018-05-17T15:11:14.748Z,11.23
2018-05-17T15:13:37.110Z,13.47
2018-05-17T15:16:03.994Z,13.17
2018-05-17T15:18:30.098Z,18.60
2018-05-17T15:20:56.941Z,17.27
2018-05-17T15:23:23.078Z,16.93
2018-05-17T15:25:49.169Z,14.60
2018-05-17T15:28:15.348Z,13.80
2018-05-17T15:30:41.458Z,15.97
2018-05-17T15:33:07.584Z,13.00
2018-05-17T15:35:33.738Z,11.67
2018-05-17T15:37:59.817Z,12.90
2018-05-17T15:40:26.662Z,15.03
2018-05-17T15:42:52.787Z,14.00
2018-05-17T15:45:20.150Z,9.70
2018-05-17T15:47:46.278Z,16.50
2018-05-17T15:50:12.374Z,17.83
2018-05-17T15:52:39.219Z,18.53
2018-05-17T15:55:06.069Z,11.40
2018-05-17T15:57:32.898Z,15.47
2018-05-17T15:59:59.013Z,12.27
2018-05-17T16:02:25.883Z,13.57
2018-05-17T16:04:52.016Z,11.60
2018-05-17T16:07:18.114Z,11.87
2018-05-17T16:09:45.577Z,13.30
2018-05-17T16:12:12.458Z,13.80
2018-05-17T16:14:38.608Z,19.77
2018-05-17T16:17:05.410Z,11.97
2018-05-17T16:19:31.540Z,10.73
2018-05-17T16:21:57.662Z,12.50
2018-05-17T16:24:23.768Z,13.27
2018-05-17T16:26:49.918Z,17.17
2018-05-17T16:29:16.078Z,18.53
2018-05-17T16:31:42.171Z,13.97
2018-05-17T16:34:08.286Z,16.13
2018-05-17T16:36:34.422Z,16.40
2018-05-17T16:39:00.523Z,16.73
2018-05-17T16:41:26.622Z,14.70
2018-05-17T16:43:53.535Z,15.63
2018-05-17T16:46:19.638Z,15.37
2018-05-17T16:48:45.771Z,15.10
2018-05-17T16:51:11.882Z,21.00
2018-05-17T16:53:38.751Z,12.93
2018-05-17T16:56:05.611Z,13.47
2018-05-17T16:58:32.483Z,10.50
2018-05-17T17:00:58.599Z,14.70
2018-05-17T17:03:24.706Z,18.77
2018-05-17T17:05:50.818Z,11.20
2018-05-17T17:08:16.945Z,12.43
2018-05-17T17:10:43.053Z,13.67
2018-05-17T17:13:09.919Z,10.47
2018-05-17T17:15:36.790Z,16.60
2018-05-17T17:18:02.923Z,16.10
2018-05-17T17:20:29.039Z,18.00
2018-05-17T17:22:55.907Z,10.90
2018-05-17T17:25:22.809Z,15.27
2018-05-17T17:27:48.956Z,10.90
2018-05-17T17:30:15.056Z,14.27
2018-05-17T17:32:41.165Z,14.00
2018-05-17T17:35:07.270Z,11.97
2018-05-17T17:37:33.394Z,14.23
2018-05-17T17:39:59.498Z,23.70
2018-05-17T17:42:25.610Z,13.73
2018-05-17T17:44:51.718Z,13.67
2018-05-17T17:47:17.831Z,13.77
2018-05-17T17:49:43.927Z,14.20
2018-05-17T17:52:10.032Z,13.80
2018-05-17T17:54:36.148Z,12.57
2018-05-17T17:57:02.270Z,12.37
2018-05-17T17:59:28.414Z,19.97
2018-05-17T18:01:54.535Z,19.77
2018-05-17T18:04:21.431Z,13.53
2018-05-17T18:06:48.156Z,16.87
2018-05-17T18:09:15.006Z,13.20
2018-05-17T18:11:41.086Z,14.30
2018-05-17T18:14:07.206Z,20.47
2018-05-17T18:16:33.294Z,13.83
2018-05-17T18:18:59.379Z,14.30
2018-05-17T18:21:25.534Z,16.40
2018-05-17T18:23:51.626Z,22.30
2018-05-17T18:26:18.478Z,10.73
2018-05-17T18:28:44.566Z,14.20
2018-05-17T18:31:10.681Z,17.33
2018-05-17T18:33:36.766Z,15.30
2018-05-17T18:36:02.978Z,15.43
2018-05-17T18:38:29.067Z,15.43
2018-05-17T18:40:55.145Z,15.23
2018-05-17T18:43:21.238Z,12.67
2018-05-17T18:45:47.367Z,13.30
2018-05-17T18:48:13.469Z,12.63
2018-05-17T18:50:39.646Z,14.70
2018-05-17T18:53:05.801Z,20.87
2018-05-17T18:55:31.923Z,12.27
2018-05-17T18:57:58.037Z,18.20
2018-05-17T19:00:24.800Z,14.13
2018-05-17T19:02:50.805Z,15.57
2018-05-17T19:05:16.906Z,13.60
2018-05-17T19:07:42.993Z,14.23
2018-05-17T19:10:09.102Z,18.27
2018-05-17T19:12:35.977Z,20.53
2018-05-17T19:15:02.195Z,17.67
2018-05-17T19:17:28.285Z,14.87
2018-05-17T19:19:54.381Z,13.90
2018-05-17T19:22:20.474Z,19.80
2018-05-17T19:24:46.711Z,17.20
2018-05-17T19:27:12.810Z,16.60
2018-05-17T19:29:38.926Z,19.77
2018-05-17T19:32:06.594Z,15.37
2018-05-17T19:34:33.422Z,13.20
2018-05-17T19:36:59.626Z,13.93
2018-05-17T19:39:25.634Z,22.37
2018-05-17T19:41:52.497Z,18.50
2018-05-17T19:44:18.615Z,21.50
2018-05-17T19:46:45.515Z,16.67
2018-05-17T19:49:11.622Z,25.00
2018-05-17T19:51:38.498Z,21.47
2018-05-17T19:54:04.602Z,17.70
2018-05-17T19:56:31.510Z,25.63
2018-05-17T19:58:58.315Z,15.50
2018-05-17T20:01:25.223Z,12.70
2018-05-17T20:03:51.351Z,15.07
2018-05-17T20:06:17.500Z,17.40
2018-05-17T20:08:43.684Z,14.47
2018-05-17T20:11:09.874Z,14.00
2018-05-17T20:13:36.023Z,16.33
2018-05-17T20:16:02.226Z,19.67
2018-05-17T20:18:29.115Z,15.70
2018-05-17T20:20:55.261Z,14.20
2018-05-17T20:23:21.390Z,15.27
2018-05-17T20:25:47.490Z,14.67
2018-05-17T20:28:13.589Z,14.57
2018-05-17T20:30:39.807Z,19.17
2018-05-17T20:33:05.966Z,14.50
2018-05-17T20:35:32.062Z,20.40
2018-05-17T20:37:58.171Z,14.27
2018-05-17T20:40:24.374Z,16.17
2018-05-17T20:42:50.508Z,20.43
2018-05-17T20:45:16.642Z,17.43
2018-05-17T20:47:42.778Z,13.77
2018-05-17T20:50:08.879Z,13.70
2018-05-17T20:52:35.735Z,8.93
2018-05-17T20:55:02.597Z,15.80
2018-05-17T20:57:29.482Z,16.17
2018-05-17T20:59:55.640Z,16.80
2018-05-17T21:02:21.767Z,19.17
2018-05-17T21:04:47.894Z,13.57
2018-05-17T21:07:14.062Z,15.20
2018-05-17T21:09:40.194Z,13.87
2018-05-17T21:12:06.301Z,20.17
2018-05-17T21:14:32.423Z,17.63
2018-05-17T21:16:59.320Z,16.93
2018-05-17T21:19:25.395Z,17.17
2018-05-17T21:21:51.638Z,17.73
2018-05-17T21:24:17.783Z,14.47
2018-05-17T21:26:44.686Z,14.87
2018-05-17T21:29:10.790Z,13.73
2018-05-17T21:31:37.694Z,16.33
2018-05-17T21:34:03.888Z,13.30
2018-05-17T21:36:29.958Z,15.93
2018-05-17T21:38:56.082Z,10.60
2018-05-17T21:41:22.218Z,16.43
2018-05-17T21:43:48.364Z,13.70
2018-05-17T21:46:14.499Z,11.43
2018-05-17T21:48:40.619Z,14.03
2018-05-17T21:51:07.494Z,17.20
2018-05-17T21:53:33.585Z,12.10
2018-05-17T21:55:59.720Z,17.00
2018-05-17T21:58:30.722Z,17.63
2018-05-17T22:00:56.856Z,14.60
2018-05-17T22:03:22.942Z,19.93
2018-05-17T22:05:49.093Z,14.63
2018-05-17T22:08:15.338Z,15.00
2018-05-17T22:10:41.723Z,15.50
2018-05-17T22:13:07.862Z,18.83
2018-05-17T22:15:33.971Z,11.17
2018-05-17T22:18:00.693Z,14.83
2018-05-17T22:20:26.822Z,13.63
2018-05-17T22:22:52.923Z,11.87
2018-05-17T22:25:19.114Z,18.93
2018-05-17T22:27:45.208Z,13.50
2018-05-17T22:30:11.885Z,12.57
2018-05-17T22:32:38.013Z,9.33
2018-05-17T22:35:04.114Z,14.30
2018-05-17T22:37:30.974Z,12.67
2018-05-17T22:39:57.838Z,12.13
2018-05-17T22:42:23.974Z,12.43
2018-05-17T22:44:50.090Z,11.27
2018-05-17T22:47:16.214Z,13.43
2018-05-17T22:49:43.095Z,20.25
2018-05-17T22:52:09.231Z,21.80
2018-05-17T22:54:36.102Z,16.08
2018-05-17T23:00:22.922Z,15.60
2018-05-17T23:02:49.054Z,20.65
2018-05-17T23:05:15.161Z,22.05
2018-05-17T23:07:42.074Z,20.05
2018-05-17T23:10:08.227Z,12.70
2018-05-17T23:12:34.314Z,15.30
2018-05-17T23:15:00.454Z,14.43
2018-05-17T23:17:26.608Z,19.70
2018-05-17T23:19:52.735Z,11.43
2018-05-17T23:22:31.049Z,13.23
2018-05-17T23:24:57.181Z,11.05
2018-05-17T23:27:23.310Z,10.45
2018-05-17T23:29:49.454Z,11.80
2018-05-17T23:32:15.624Z,17.15
2018-05-17T23:34:41.739Z,15.88
2018-05-17T23:37:18.810Z,14.13
2018-05-17T23:39:45.675Z,17.73
2018-05-17T23:42:11.814Z,8.77
2018-05-17T23:44:37.913Z,14.97
2018-05-17T23:47:04.019Z,17.05
2018-05-17T23:49:30.159Z,15.25
2018-05-17T23:51:56.338Z,13.30
2018-05-17T23:54:22.458Z,11.48
2018-05-17T23:56:48.574Z,22.17
2018-05-17T23:59:14.682Z,16.50
